Time;durP1;ratioP1;P1;durP2;ratioP2;P2;SDS_P1;SDS_P2;PMS_P1;PMS_P2;Temp;Humidity;BMP_temperature;BMP_pressure;BME280_temperature;BME280_humidity;BME280_pressure;Samples;Min_cycle;Max_cycle;Signal;HPM_P1;HPM_P2
2022/07/18 00:01:07;;;;;;;4.27;3.07;;;12.30;99.90;11.70;101064;;;;564929;250;24140;-78
2022/07/18 00:03:35;;;;;;;2.90;2.60;;;12.30;99.90;11.70;101066;;;;577228;245;24104;-81
2022/07/18 00:06:02;;;;;;;4.70;2.40;;;12.40;99.90;11.70;101066;;;;565105;250;24082;-75
2022/07/18 00:08:30;;;;;;;3.43;2.70;;;12.40;99.90;11.70;101063;;;;573974;245;24094;-75
2022/07/18 00:10:59;;;;;;;4.67;2.53;;;12.40;99.90;11.80;101068;;;;565088;250;24110;-75
2022/07/18 00:13:28;;;;;;;3.70;2.33;;;12.50;99.90;11.80;101060;;;;576995;245;24121;-78
2022/07/18 00:15:56;;;;;;;4.50;2.70;;;12.50;99.90;11.80;101067;;;;565161;250;24160;-76
2022/07/18 00:18:24;;;;;;;2.77;2.57;;;12.50;99.90;11.80;101066;;;;577099;245;24050;-74
2022/07/18 00:20:52;;;;;;;3.13;2.10;;;12.50;99.90;11.80;101060;;;;575673;249;24119;-75
2022/07/18 00:23:21;;;;;;;5.63;2.13;;;12.50;99.90;11.80;101068;;;;577126;245;24075;-75
2022/07/18 00:25:52;;;;;;;2.90;2.50;;;12.50;99.90;11.80;101055;;;;565067;250;24088;-76
2022/07/18 00:28:17;;;;;;;4.03;2.60;;;12.50;99.90;11.80;101066;;;;575176;241;24097;-77
2022/07/18 00:30:48;;;;;;;2.57;1.97;;;12.50;99.90;11.80;101065;;;;565082;250;24107;-75
2022/07/18 00:33:13;;;;;;;3.30;2.67;;;12.50;99.90;11.80;101060;;;;574680;245;24065;-75
2022/07/18 00:35:41;;;;;;;6.40;2.80;;;12.50;99.90;11.80;101060;;;;566286;249;24121;-73
2022/07/18 00:38:10;;;;;;;3.63;2.40;;;12.50;99.90;11.90;101060;;;;577985;245;24070;-76
2022/07/18 00:40:39;;;;;;;3.77;2.43;;;12.50;99.90;11.90;101066;;;;565850;249;24104;-73
2022/07/18 00:43:07;;;;;;;5.23;2.63;;;12.50;99.90;11.90;101064;;;;577692;245;24094;-77
2022/07/18 00:45:34;;;;;;;7.97;2.73;;;12.50;99.90;11.90;101070;;;;567800;249;24109;-75
2022/07/18 00:48:05;;;;;;;5.07;2.50;;;12.50;99.90;11.90;101063;;;;577634;245;24039;-74
2022/07/18 00:50:33;;;;;;;4.77;2.80;;;12.60;99.90;11.90;101068;;;;565428;252;24147;-74
2022/07/18 00:53:01;;;;;;;2.77;2.53;;;12.60;99.90;11.90;101066;;;;577410;245;24078;-76
2022/07/18 00:55:29;;;;;;;5.37;3.07;;;12.60;99.90;11.90;101060;;;;565210;249;24083;-75
2022/07/18 00:57:57;;;;;;;3.87;3.03;;;12.60;99.90;11.90;101056;;;;577758;245;25164;-74
2022/07/18 01:03:11;;;;;;;4.73;2.70;;;12.60;99.90;12.00;101059;;;;576018;249;24097;-73
2022/07/18 01:05:39;;;;;;;5.80;3.03;;;12.60;99.90;12.00;101060;;;;567395;249;24090;-73
2022/07/18 01:08:07;;;;;;;5.50;2.67;;;12.60;99.90;11.90;101065;;;;577497;245;24115;-73
2022/07/18 01:10:35;;;;;;;5.73;2.30;;;12.60;99.90;11.90;101058;;;;565073;250;24091;-75
2022/07/18 01:13:03;;;;;;;3.67;2.77;;;12.60;99.90;11.90;101062;;;;577185;245;24128;-77
2022/07/18 01:15:31;;;;;;;8.37;2.67;;;12.60;99.90;11.90;101055;;;;565075;250;24079;-75
2022/07/18 01:17:59;;;;;;;3.90;2.97;;;12.60;99.90;11.90;101051;;;;574030;245;24076;-76
2022/07/18 01:20:30;;;;;;;5.00;2.50;;;12.50;99.90;11.90;101042;;;;565096;249;25184;-79
2022/07/18 01:22:58;;;;;;;2.73;2.37;;;12.50;99.90;11.90;101045;;;;574026;245;24098;-79
2022/07/18 01:25:26;;;;;;;8.53;3.13;;;12.50;99.90;11.90;101047;;;;575819;248;24102;-79
2022/07/18 01:27:56;;;;;;;3.80;2.47;;;12.50;99.90;11.90;101049;;;;577097;245;24117;-74
2022/07/18 01:30:22;;;;;;;3.60;2.30;;;12.50;99.90;11.80;101038;;;;565033;250;25136;-75
2022/07/18 01:32:57;;;;;;;6.37;2.67;;;12.50;99.90;11.80;101035;;;;586016;244;24072;-81
2022/07/18 01:35:25;;;;;;;4.67;2.60;;;12.50;99.90;11.90;101042;;;;556578;254;24152;-76
2022/07/18 01:37:56;;;;;;;4.30;2.50;;;12.50;99.90;11.90;101034;;;;577147;245;24144;-78
2022/07/18 01:40:23;;;;;;;4.23;2.57;;;12.50;99.90;11.90;101030;;;;564928;252;24128;-79
2022/07/18 01:42:51;;;;;;;3.20;2.50;;;12.50;99.90;11.90;101032;;;;577135;245;24060;-80
2022/07/18 01:45:19;;;;;;;5.67;3.17;;;12.50;99.90;11.90;101035;;;;568009;249;24117;-80
2022/07/18 01:47:47;;;;;;;4.93;2.53;;;12.50;99.90;11.90;101033;;;;578394;245;24065;-80
2022/07/18 01:50:16;;;;;;;6.93;2.20;;;12.60;99.90;12.00;101047;;;;567933;249;25172;-79
2022/07/18 01:52:45;;;;;;;8.47;2.70;;;12.60;99.90;12.00;101045;;;;574697;245;24205;-75
2022/07/18 01:55:13;;;;;;;10.70;2.93;;;12.60;99.90;12.00;101042;;;;565615;249;24087;-74
2022/07/18 01:57:41;;;;;;;8.77;2.73;;;12.60;99.90;12.10;101036;;;;567607;249;24144;-74
2022/07/18 02:00:09;;;;;;;5.77;2.57;;;12.70;99.90;12.10;101040;;;;577983;245;24055;-75
2022/07/18 02:02:40;;;;;;;5.03;2.70;;;12.70;99.90;12.10;101042;;;;557655;253;24115;-75
2022/07/18 02:05:06;;;;;;;3.03;2.53;;;12.70;99.90;12.20;101044;;;;577818;245;24060;-74
2022/07/18 02:07:38;;;;;;;9.27;2.93;;;12.80;99.90;12.20;101046;;;;575964;248;24146;-74
2022/07/18 02:10:05;;;;;;;9.32;4.22;;;12.80;99.90;12.20;101049;;;;571943;245;35138;-74
2022/07/18 02:12:33;;;;;;;7.43;3.60;;;12.80;99.90;12.20;101044;;;;565323;249;24081;-74
2022/07/18 02:15:01;;;;;;;6.03;3.20;;;12.80;99.90;12.20;101052;;;;574165;245;24061;-76
2022/07/18 02:17:29;;;;;;;6.13;3.23;;;12.80;99.90;12.20;101043;;;;576053;245;24121;-79
2022/07/18 02:19:57;;;;;;;4.37;3.07;;;12.80;99.90;12.20;101046;;;;567431;249;24175;-77
2022/07/18 02:22:25;;;;;;;4.80;3.07;;;12.90;99.90;12.20;101053;;;;577226;245;24042;-75
2022/07/18 02:24:53;;;;;;;4.10;2.93;;;12.80;99.90;12.30;101038;;;;575617;249;24095;-78
2022/07/18 02:27:21;;;;;;;4.00;2.93;;;12.90;99.90;12.30;101034;;;;576997;245;24109;-74
2022/07/18 02:29:48;;;;;;;5.27;3.27;;;12.90;99.90;12.30;101047;;;;565088;249;24111;-76
2022/07/18 02:32:16;;;;;;;3.67;2.80;;;12.90;99.90;12.30;101046;;;;574065;245;24118;-74
2022/07/18 02:34:44;;;;;;;6.83;2.83;;;12.90;99.90;12.40;101036;;;;567189;250;24087;-75
2022/07/18 02:37:12;;;;;;;5.97;3.10;;;13.00;99.90;12.40;101040;;;;574058;245;24056;-77
2022/07/18 02:39:41;;;;;;;5.10;3.10;;;13.10;99.90;12.40;101037;;;;564950;250;24116;-79
2022/07/18 02:42:09;;;;;;;3.27;2.97;;;13.00;99.90;12.40;101040;;;;567215;250;24148;-80
2022/07/18 02:44:37;;;;;;;6.60;3.40;;;13.10;99.90;12.40;101039;;;;574002;245;24110;-78
2022/07/18 02:47:05;;;;;;;3.90;3.07;;;13.10;99.90;12.50;101044;;;;565107;250;24076;-73
2022/07/18 02:49:33;;;;;;;4.60;3.13;;;13.10;99.90;12.50;101045;;;;577036;245;24109;-74
2022/07/18 02:52:00;;;;;;;6.80;2.67;;;13.10;99.90;12.50;101048;;;;564865;250;24079;-75
2022/07/18 02:54:32;;;;;;;4.07;2.70;;;13.10;99.90;12.50;101038;;;;576976;245;25119;-74
2022/07/18 02:56:56;;;;;;;7.20;3.27;;;13.20;99.90;12.60;101036;;;;555616;253;24164;-76
2022/07/18 02:59:24;;;;;;;3.33;2.50;;;13.20;99.90;12.60;101039;;;;587313;244;24061;-74
2022/07/18 03:01:52;;;;;;;3.63;3.30;;;13.20;99.90;12.60;101037;;;;566169;253;24119;-74
2022/07/18 03:04:21;;;;;;;5.37;3.20;;;13.30;99.90;12.60;101047;;;;578195;245;24103;-75
2022/07/18 03:06:49;;;;;;;4.10;2.60;;;13.30;99.90;12.70;101044;;;;565848;249;24129;-78
2022/07/18 03:09:18;;;;;;;4.67;2.90;;;13.30;99.90;12.70;101050;;;;577755;245;24095;-74
2022/07/18 03:11:45;;;;;;;4.23;3.37;;;13.40;99.90;12.80;101045;;;;565841;249;24160;-74
2022/07/18 03:14:13;;;;;;;6.93;3.43;;;13.40;99.90;12.80;101048;;;;577871;245;24090;-74
2022/07/18 03:16:44;;;;;;;10.37;3.20;;;13.40;99.90;12.90;101040;;;;565630;249;24179;-74
2022/07/18 03:19:09;;;;;;;4.20;3.13;;;13.50;99.90;12.90;101052;;;;567596;249;24083;-75
2022/07/18 03:21:37;;;;;;;11.43;3.17;;;13.60;99.90;13.00;101039;;;;574669;245;24098;-76
2022/07/18 03:24:05;;;;;;;7.27;3.07;;;13.60;99.90;13.10;101042;;;;565669;249;24086;-75
2022/07/18 03:26:33;;;;;;;5.30;3.23;;;13.70;99.90;13.10;101037;;;;577264;245;24082;-74
2022/07/18 03:29:01;;;;;;;5.57;3.17;;;13.80;99.90;13.20;101044;;;;565325;249;24125;-74
2022/07/18 03:31:29;;;;;;;9.90;4.40;;;13.80;99.90;13.30;101039;;;;572319;245;35158;-75
2022/07/18 03:33:56;;;;;;;6.80;3.70;;;13.90;99.90;13.40;101039;;;;565054;250;24071;-76
2022/07/18 03:36:24;;;;;;;5.37;3.20;;;14.00;99.90;13.50;101037;;;;567087;250;24089;-77
2022/07/18 03:38:52;;;;;;;4.43;3.13;;;14.10;99.90;13.60;101039;;;;576964;245;24069;-77
2022/07/18 03:41:21;;;;;;;2.60;2.40;;;14.30;99.90;13.70;101045;;;;564981;250;24099;-77
2022/07/18 03:43:50;;;;;;;4.53;2.73;;;14.40;99.90;13.80;101053;;;;576912;245;24084;-78
2022/07/18 03:46:18;;;;;;;4.47;3.10;;;14.40;99.90;13.80;101048;;;;565082;250;24083;-73
2022/07/18 03:48:45;;;;;;;2.63;2.40;;;14.50;99.90;13.90;101050;;;;577064;245;24072;-78
2022/07/18 03:51:13;;;;;;;5.63;2.80;;;14.50;99.90;14.00;101047;;;;564940;250;24080;-76
2022/07/18 03:53:41;;;;;;;4.03;2.80;;;14.60;99.90;14.10;101049;;;;574124;245;24153;-73
2022/07/18 03:56:09;;;;;;;4.30;2.37;;;14.70;99.90;14.10;101042;;;;567077;250;24186;-75
2022/07/18 03:58:37;;;;;;;5.07;2.70;;;14.80;99.90;14.20;101045;;;;574476;245;24077;-76
2022/07/18 04:01:05;;;;;;;5.63;2.70;;;14.80;99.90;14.30;101047;;;;565268;250;24134;-74
2022/07/18 04:03:34;;;;;;;4.57;2.40;;;14.90;99.90;14.30;101048;;;;577158;245;25157;-76
2022/07/18 04:06:02;;;;;;;3.77;2.10;;;14.90;99.90;14.40;101047;;;;565046;249;24089;-76
2022/07/18 04:08:30;;;;;;;5.50;2.60;;;15.00;99.90;14.50;101047;;;;577912;245;24125;-74
2022/07/18 04:10:57;;;;;;;3.70;3.00;;;15.10;99.90;14.60;101045;;;;566221;249;24116;-75
2022/07/18 04:13:25;;;;;;;9.13;2.90;;;15.20;99.90;14.60;101044;;;;577941;245;24114;-74
2022/07/18 04:15:53;;;;;;;5.47;2.97;;;15.20;99.90;14.70;101044;;;;565984;249;24073;-75
2022/07/18 04:18:21;;;;;;;5.33;2.90;;;15.30;99.90;14.80;101048;;;;577691;245;24124;-74
2022/07/18 04:20:49;;;;;;;7.40;2.83;;;15.40;99.90;14.90;101046;;;;565463;249;24095;-75
2022/07/18 04:23:18;;;;;;;3.47;2.87;;;15.60;99.90;15.00;101043;;;;577718;245;24081;-74
2022/07/18 04:25:46;;;;;;;2.33;2.10;;;15.70;99.90;15.20;101039;;;;566527;249;24160;-76
2022/07/18 04:28:15;;;;;;;4.03;2.43;;;15.80;99.90;15.30;101043;;;;575598;247;24108;-75
2022/07/18 04:30:44;;;;;;;3.83;2.60;;;16.00;99.90;15.40;101041;;;;568181;248;24106;-76
2022/07/18 04:33:13;;;;;;;8.03;2.40;;;16.00;99.90;15.40;101034;;;;578011;246;24131;-73
2022/07/18 04:35:41;;;;;;;5.57;2.30;;;16.00;99.90;15.50;101039;;;;547385;259;24163;-74
2022/07/18 04:38:08;;;;;;;7.20;2.63;;;16.10;99.90;15.70;101041;;;;575622;249;24159;-76
2022/07/18 04:40:36;;;;;;;5.93;2.50;;;16.20;99.90;15.70;101047;;;;547403;259;24154;-74
2022/07/18 04:43:04;;;;;;;3.90;2.57;;;16.30;99.90;15.80;101048;;;;575550;249;24102;-79
2022/07/18 04:45:32;;;;;;;6.37;2.30;;;16.40;99.90;15.80;101054;;;;547199;259;24183;-79
2022/07/18 04:48:00;;;;;;;7.13;2.67;;;16.40;99.90;15.90;101049;;;;575336;249;24086;-79
2022/07/18 04:50:29;;;;;;;3.07;2.63;;;16.50;99.90;16.00;101046;;;;547448;259;24162;-79
2022/07/18 04:52:57;;;;;;;4.73;2.67;;;16.60;99.90;16.10;101044;;;;575375;249;24129;-80
2022/07/18 04:55:24;;;;;;;5.80;2.57;;;16.60;99.90;16.20;101049;;;;547058;258;24155;-75
2022/07/18 04:57:52;;;;;;;3.37;2.43;;;16.80;99.90;16.30;101052;;;;568038;246;24134;-75
2022/07/18 05:00:20;;;;;;;5.43;2.60;;;16.80;99.90;16.40;101054;;;;564013;250;24112;-74
2022/07/18 05:02:48;;;;;;;4.40;3.37;;;16.90;99.90;16.40;101054;;;;547373;259;24221;-74
2022/07/18 05:05:19;;;;;;;10.37;3.07;;;17.00;99.90;16.50;101049;;;;567755;246;24148;-73
2022/07/18 05:07:44;;;;;;;3.17;2.73;;;17.10;99.90;16.60;101054;;;;566630;250;24159;-75
2022/07/18 05:10:13;;;;;;;4.65;3.10;;;17.30;99.90;16.70;101057;;;;545889;254;35484;-75
2022/07/18 05:12:41;;;;;;;5.27;2.40;;;17.40;99.90;16.80;101051;;;;574727;246;24149;-78
2022/07/18 05:15:10;;;;;;;5.60;2.70;;;17.30;99.90;16.90;101048;;;;553614;254;24261;-76
2022/07/18 05:17:37;;;;;;;4.10;2.60;;;17.50;99.90;17.10;101057;;;;566750;250;24095;-75
2022/07/18 05:20:05;;;;;;;3.90;2.57;;;17.60;99.90;17.30;101062;;;;569011;248;24135;-73
2022/07/18 05:22:33;;;;;;;5.53;2.40;;;17.80;99.90;17.50;101063;;;;579950;244;24061;-73
2022/07/18 05:25:02;;;;;;;3.60;2.80;;;18.30;99.90;17.80;101066;;;;558506;257;24181;-73
2022/07/18 05:27:30;;;;;;;4.87;2.50;;;18.70;99.90;18.20;101058;;;;575001;243;24036;-75
2022/07/18 05:30:01;;;;;;;2.63;2.30;;;18.60;99.90;18.90;101058;;;;568019;245;24111;-75
2022/07/18 05:32:29;;;;;;;4.23;2.30;;;19.30;99.90;20.60;101062;;;;574384;241;24059;-74
2022/07/18 05:34:58;;;;;;;5.10;2.47;;;22.20;99.90;21.80;101062;;;;548510;254;24229;-81
2022/07/18 05:37:27;;;;;;;3.37;2.27;;;23.40;99.90;23.10;101068;;;;569874;249;24191;-82
2022/07/18 05:39:54;;;;;;;3.07;2.50;;;23.30;99.90;24.60;101066;;;;549548;259;24150;-80
2022/07/18 05:42:22;;;;;;;3.33;2.60;;;25.00;99.90;25.80;101064;;;;569317;250;25156;-79
2022/07/18 05:44:50;;;;;;;7.83;2.70;;;26.20;99.90;26.10;101065;;;;549692;255;23175;-82
2022/07/18 05:47:18;;;;;;;4.80;2.23;;;26.70;99.90;26.10;101062;;;;569377;250;24091;-81
2022/07/18 05:49:46;;;;;;;3.57;2.20;;;26.80;99.90;25.70;101068;;;;547402;259;24202;-80
2022/07/18 05:52:14;;;;;;;5.97;2.43;;;26.50;99.90;25.40;101072;;;;569415;250;23120;-82
2022/07/18 05:54:42;;;;;;;4.47;2.77;;;26.30;99.90;25.40;101070;;;;547294;259;24206;-77
2022/07/18 05:57:10;;;;;;;4.27;2.30;;;26.10;99.90;25.60;101059;;;;569110;250;23085;-78
2022/07/18 05:59:38;;;;;;;3.23;2.20;;;26.20;99.90;26.10;101070;;;;549361;259;23192;-80
2022/07/18 06:02:06;;;;;;;4.33;2.77;;;26.60;99.90;26.30;101063;;;;569255;250;23105;-79
2022/07/18 06:04:34;;;;;;;6.73;2.77;;;26.80;99.90;26.30;101067;;;;547527;256;23223;-79
2022/07/18 06:07:02;;;;;;;7.03;2.50;;;26.80;99.90;26.30;101061;;;;569535;250;23073;-84
2022/07/18 06:09:30;;;;;;;5.73;2.50;;;26.80;99.90;26.70;101057;;;;570999;248;24130;-83
2022/07/18 06:12:00;;;;;;;4.78;2.65;;;27.10;99.90;27.10;101059;;;;566745;248;35126;-77
2022/07/18 06:14:28;;;;;;;5.27;2.17;;;27.60;99.30;27.00;101062;;;;571630;245;23141;-75
2022/07/18 06:16:56;;;;;;;4.53;2.70;;;27.60;98.60;26.90;101066;;;;566431;248;24158;-80
2022/07/18 06:19:24;;;;;;;3.30;3.00;;;27.50;98.30;26.50;101066;;;;571753;248;23063;-77
2022/07/18 06:21:52;;;;;;;4.47;2.58;;;26.80;98.30;26.10;101064;;;;545362;259;46350;-78
2022/07/18 06:24:20;;;;;;;3.77;2.00;;;26.70;98.30;25.60;101062;;;;580367;245;23099;-77
2022/07/18 06:26:49;;;;;;;5.40;2.70;;;26.40;99.10;25.40;101061;;;;549633;259;23122;-76
2022/07/18 06:29:16;;;;;;;3.50;1.97;;;26.10;99.80;25.10;101057;;;;572295;243;23023;-76
2022/07/18 06:31:44;;;;;;;5.07;2.40;;;25.70;99.90;24.80;101066;;;;570779;246;24186;-75
2022/07/18 06:34:12;;;;;;;5.23;2.47;;;25.40;99.90;24.50;101059;;;;574561;246;24055;-75
2022/07/18 06:36:40;;;;;;;7.93;2.70;;;25.10;99.90;24.30;101060;;;;584150;243;23113;-77
2022/07/18 06:39:10;;;;;;;3.87;2.20;;;24.50;99.90;24.10;101067;;;;582994;243;23041;-78
2022/07/18 06:41:36;;;;;;;4.77;2.30;;;24.50;99.90;23.80;101067;;;;565126;252;24084;-78
2022/07/18 06:44:04;;;;;;;2.87;2.10;;;24.30;99.90;23.70;101064;;;;574728;248;24147;-78
2022/07/18 06:46:32;;;;;;;2.60;2.00;;;24.20;99.90;23.70;101066;;;;547567;259;24195;-77
2022/07/18 06:49:01;;;;;;;6.03;2.47;;;24.10;99.90;23.60;101068;;;;567305;250;24127;-78
2022/07/18 06:51:29;;;;;;;4.00;2.17;;;24.00;99.90;23.60;101068;;;;565405;249;24089;-76
2022/07/18 06:53:57;;;;;;;6.37;2.72;;;24.00;99.90;23.50;101065;;;;564591;249;35283;-79
2022/07/18 06:56:25;;;;;;;6.43;2.43;;;24.00;99.90;23.50;101071;;;;573769;249;24145;-77
2022/07/18 06:58:55;;;;;;;3.97;2.10;;;23.90;99.90;23.40;101069;;;;574692;243;24121;-81
2022/07/18 07:01:24;;;;;;;5.33;2.37;;;23.90;99.90;23.30;101075;;;;558569;253;24135;-78
2022/07/18 07:03:49;;;;;;;8.63;2.77;;;23.70;99.90;23.20;101070;;;;565624;253;24136;-77
2022/07/18 07:06:18;;;;;;;3.77;2.30;;;23.60;99.90;23.10;101072;;;;572841;249;24081;-78
2022/07/18 07:08:46;;;;;;;5.83;2.70;;;23.50;99.90;22.90;101066;;;;554693;254;24160;-77
2022/07/18 07:11:14;;;;;;;5.43;2.30;;;23.40;99.90;22.60;101067;;;;545646;260;24135;-80
2022/07/18 07:13:42;;;;;;;2.13;1.90;;;23.10;99.90;22.30;101072;;;;567168;250;24171;-78
2022/07/18 07:16:09;;;;;;;2.57;2.30;;;22.80;99.90;22.10;101073;;;;565828;253;24111;-78
2022/07/18 07:18:37;;;;;;;6.93;2.80;;;22.60;99.90;21.90;101068;;;;575677;249;24059;-80
2022/07/18 07:21:08;;;;;;;3.40;2.33;;;22.40;99.90;21.90;101082;;;;557553;254;24127;-78
2022/07/18 07:23:33;;;;;;;4.07;2.13;;;22.30;99.90;21.80;101073;;;;568046;245;24121;-78
2022/07/18 07:26:04;;;;;;;3.00;1.90;;;22.20;99.90;21.60;101075;;;;557035;254;24179;-81
2022/07/18 07:28:29;;;;;;;5.10;2.53;;;22.10;99.90;21.60;101077;;;;576906;245;24112;-78
2022/07/18 07:30:58;;;;;;;3.13;2.03;;;22.00;99.90;21.50;101076;;;;557186;254;24137;-79
2022/07/18 07:33:26;;;;;;;3.23;2.30;;;22.00;99.90;21.50;101082;;;;584706;244;24128;-78
2022/07/18 07:35:53;;;;;;;4.17;2.30;;;21.90;99.90;21.50;101077;;;;564179;253;24121;-76
2022/07/18 07:38:27;;;;;;;4.87;2.20;;;21.90;99.90;21.30;101078;;;;584791;245;24083;-78
2022/07/18 07:40:53;;;;;;;2.87;2.23;;;21.80;99.90;21.20;101073;;;;563928;249;24160;-79
2022/07/18 07:43:17;;;;;;;3.30;2.23;;;21.70;99.90;21.10;101074;;;;585154;243;23087;-78
2022/07/18 07:45:48;;;;;;;2.87;1.97;;;21.60;99.90;20.90;101088;;;;565238;253;24139;-78
2022/07/18 07:48:19;;;;;;;4.40;2.63;;;21.40;99.90;20.70;101080;;;;585281;245;24125;-78
2022/07/18 07:50:44;;;;;;;4.20;2.70;;;21.10;99.90;20.60;101083;;;;565132;254;23143;-77
2022/07/18 07:53:12;;;;;;;3.50;2.00;;;21.00;99.90;20.40;101076;;;;579663;244;23080;-79
2022/07/18 07:55:41;;;;;;;4.37;2.13;;;20.90;99.90;20.30;101072;;;;556304;250;23210;-79
2022/07/18 07:58:09;;;;;;;3.17;2.50;;;20.80;99.90;20.20;101077;;;;574639;245;24158;-84
2022/07/18 08:00:36;;;;;;;3.07;2.20;;;20.70;99.90;20.10;101081;;;;565051;252;24145;-82
2022/07/18 08:03:04;;;;;;;3.83;2.40;;;20.60;99.90;20.10;101083;;;;574325;249;23112;-83
2022/07/18 08:05:32;;;;;;;3.00;2.80;;;20.60;99.90;20.20;101080;;;;565024;247;24116;-81
2022/07/18 08:08:00;;;;;;;7.40;3.73;;;20.60;99.90;20.20;101081;;;;575300;249;24121;-84
2022/07/18 08:10:27;;;;;;;2.57;2.03;;;20.70;99.90;20.30;101082;;;;565415;252;24108;-83
2022/07/18 08:12:55;;;;;;;6.47;2.67;;;20.80;99.90;20.40;101081;;;;574604;249;24154;-83
2022/07/18 08:15:24;;;;;;;5.30;2.27;;;20.90;99.90;20.50;101086;;;;564953;252;24121;-81
2022/07/18 08:17:54;;;;;;;8.77;2.57;;;21.00;99.90;20.60;101086;;;;581551;245;24052;-81
2022/07/18 08:20:19;;;;;;;6.17;2.57;;;21.00;99.90;20.70;101087;;;;565084;248;24155;-81
2022/07/18 08:23:02;;;;;;;2.60;2.40;;;21.20;99.90;20.80;101086;;;;567992;243;24017;-80
2022/07/18 08:25:30;;;;;;;2.40;2.20;;;21.30;99.90;20.80;101085;;;;559211;251;24083;-82
2022/07/18 08:28:00;;;;;;;4.53;2.57;;;21.40;99.90;20.90;101083;;;;574501;246;23161;-81
2022/07/18 08:30:26;;;;;;;4.13;2.47;;;21.40;99.90;20.90;101083;;;;553405;255;24137;-81
2022/07/18 08:32:54;;;;;;;2.97;2.10;;;21.30;99.90;20.80;101082;;;;565966;250;24127;-80
2022/07/18 08:35:22;;;;;;;8.93;2.03;;;21.30;99.90;20.80;101087;;;;577490;245;24051;-81
2022/07/18 08:37:50;;;;;;;7.50;2.43;;;21.30;99.90;20.90;101085;;;;574873;246;23082;-82
2022/07/18 08:40:21;;;;;;;7.43;2.60;;;21.40;99.90;21.10;101079;;;;586382;243;24055;-80
2022/07/18 08:42:46;;;;;;;3.57;2.43;;;21.60;99.90;21.30;101079;;;;574842;246;24099;-80
2022/07/18 08:45:14;;;;;;;3.37;1.93;;;21.70;99.90;21.40;101085;;;;577685;245;24063;-81
2022/07/18 08:47:42;;;;;;;3.80;2.33;;;21.90;99.90;21.40;101088;;;;574986;246;24073;-81
2022/07/18 08:50:13;;;;;;;2.93;2.13;;;21.90;99.90;21.30;101084;;;;577252;245;24150;-81
2022/07/18 08:52:38;;;;;;;3.17;1.97;;;21.80;99.90;21.10;101086;;;;574915;246;24072;-82
2022/07/18 08:55:06;;;;;;;4.60;2.55;;;21.70;99.90;21.00;101080;;;;576033;244;45892;-80
2022/07/18 08:57:34;;;;;;;4.97;2.20;;;21.50;99.90;20.80;101085;;;;585152;244;24086;-81
2022/07/18 09:00:05;;;;;;;1.90;1.70;;;21.40;99.90;20.70;101085;;;;575751;246;24130;-80
2022/07/18 09:02:36;;;;;;;4.27;2.07;;;21.30;99.90;20.70;101086;;;;580234;246;24145;-80
2022/07/18 09:05:01;;;;;;;3.45;2.20;;;21.20;99.90;20.70;101087;;;;574952;245;34968;-80
2022/07/18 09:07:37;;;;;;;3.07;2.00;;;21.20;99.90;20.70;101088;;;;584526;243;23126;-81
2022/07/18 09:10:02;;;;;;;1.50;1.40;;;21.20;99.90;20.70;101080;;;;580560;246;25139;-80
2022/07/18 09:12:33;;;;;;;3.10;1.60;;;21.20;99.90;21.00;101084;;;;587022;243;24161;-80
2022/07/18 09:15:07;;;;;;;5.20;2.03;;;21.40;99.90;21.30;101079;;;;584346;245;24097;-81
2022/07/18 09:17:35;;;;;;;4.33;1.97;;;21.70;99.90;21.50;101082;;;;578028;245;24073;-81
2022/07/18 09:20:08;;;;;;;2.10;1.90;;;21.90;99.90;21.70;101076;;;;575487;246;23179;-83
2022/07/18 09:22:33;;;;;;;4.07;1.87;;;22.10;99.90;22.10;101074;;;;577527;245;24091;-80
2022/07/18 09:25:10;;;;;;;2.20;1.73;;;22.50;99.90;22.50;101077;;;;584278;245;25123;-82
2022/07/18 09:27:43;;;;;;;2.20;2.00;;;22.90;99.90;23.00;101080;;;;579698;246;24110;-80
2022/07/18 09:30:20;;;;;;;4.63;2.13;;;23.30;99.90;23.40;101081;;;;584574;240;24062;-78
2022/07/18 09:32:51;;;;;;;6.30;2.27;;;24.20;99.90;23.70;101075;;;;574924;246;24079;-82
2022/07/18 09:35:19;;;;;;;2.40;2.20;;;24.20;99.90;24.40;101078;;;;577746;245;24071;-77
2022/07/18 09:38:01;;;;;;;2.40;2.10;;;24.70;99.90;25.00;101070;;;;579265;246;24093;-82
2022/07/18 09:40:29;;;;;;;3.23;1.90;;;25.40;99.90;25.10;101067;;;;577958;245;23091;-80
2022/07/18 09:42:57;;;;;;;2.03;1.47;;;25.60;99.90;25.30;101067;;;;571419;246;23132;-79
2022/07/18 09:45:28;;;;;;;1.77;1.67;;;25.80;99.90;25.30;101063;;;;577369;244;24092;-82
2022/07/18 09:47:55;;;;;;;3.43;2.10;;;25.80;99.90;25.10;101062;;;;579679;246;23094;-80
2022/07/18 09:50:29;;;;;;;2.70;1.77;;;25.70;99.90;24.90;101063;;;;575128;244;23078;-80
2022/07/18 09:52:57;;;;;;;6.43;2.77;;;25.50;99.90;24.60;101063;;;;583803;245;23132;-80
2022/07/18 09:55:29;;;;;;;3.22;2.20;;;25.00;99.90;24.50;101072;;;;572501;239;35229;-81
2022/07/18 09:58:01;;;;;;;6.27;2.30;;;25.00;99.90;24.50;101069;;;;579852;246;24101;-81
2022/07/18 10:00:25;;;;;;;2.93;1.73;;;25.00;99.90;25.00;101067;;;;579345;246;24180;-80
2022/07/18 10:02:53;;;;;;;6.63;2.50;;;25.40;99.90;25.60;101071;;;;586658;244;23167;-79
2022/07/18 10:05:21;;;;;;;4.40;1.93;;;25.90;99.90;26.00;101077;;;;575424;244;24134;-79
2022/07/18 10:07:50;;;;;;;3.47;2.00;;;26.80;99.90;26.40;101074;;;;588179;244;23126;-81
2022/07/18 10:10:18;;;;;;;4.40;2.20;;;26.70;99.90;26.70;101084;;;;580606;245;24102;-79
2022/07/18 10:12:46;;;;;;;1.83;1.63;;;27.10;99.90;27.20;101088;;;;578120;245;23120;-80
2022/07/18 10:15:14;;;;;;;2.17;1.97;;;27.90;96.80;27.40;101090;;;;580345;245;24103;-80
2022/07/18 10:17:42;;;;;;;3.03;1.97;;;27.90;96.70;27.00;101100;;;;584650;244;23139;-80
2022/07/18 10:20:11;;;;;;;2.97;2.70;;;27.60;96.50;26.50;101094;;;;584763;244;24122;-82
2022/07/18 10:22:44;;;;;;;5.63;2.20;;;27.20;96.50;26.10;101102;;;;584486;245;23086;-80
2022/07/18 10:25:12;;;;;;;2.87;1.97;;;26.80;97.20;25.80;101105;;;;587521;244;23126;-80
2022/07/18 10:27:55;;;;;;;2.93;1.93;;;26.40;97.90;25.80;101103;;;;579993;245;23128;-80
2022/07/18 10:30:30;;;;;;;5.43;2.27;;;26.30;97.80;25.80;101099;;;;577588;244;24106;-80
2022/07/18 10:32:58;;;;;;;2.53;2.20;;;26.20;97.80;26.20;101100;;;;575229;245;23137;-81
2022/07/18 10:36:02;;;;;;;4.20;1.90;;;26.50;97.40;26.30;101083;;;;577635;245;23084;-80
2022/07/18 10:38:30;;;;;;;10.83;2.50;;;26.70;96.40;26.40;101080;;;;579784;246;23074;-79
2022/07/18 10:41:06;;;;;;;3.63;2.27;;;26.80;96.80;26.80;101080;;;;575245;246;23131;-78
2022/07/18 10:43:38;;;;;;;4.40;2.40;;;27.10;96.80;27.10;101088;;;;583792;241;24070;-79
2022/07/18 10:46:02;;;;;;;2.53;2.33;;;27.40;95.90;27.30;101092;;;;574697;246;23106;-79
2022/07/18 10:48:33;;;;;;;6.83;2.70;;;27.70;95.20;27.10;101082;;;;577297;243;23111;-79
2022/07/18 10:51:01;;;;;;;4.60;1.90;;;27.60;94.30;27.00;101091;;;;575029;246;23108;-80
2022/07/18 10:53:54;;;;;;;5.23;1.90;;;27.50;94.80;27.10;101089;;;;584081;245;24068;-82
2022/07/18 10:56:22;;;;;;;8.00;2.07;;;27.50;94.50;27.50;101086;;;;579654;246;23083;-81
2022/07/18 10:58:50;;;;;;;5.73;2.30;;;28.20;93.70;27.90;101099;;;;577214;245;23079;-79
2022/07/18 11:01:22;;;;;;;2.87;2.10;;;28.60;93.20;28.20;101092;;;;577473;245;23121;-80
2022/07/18 11:03:49;;;;;;;2.30;2.07;;;28.60;93.20;28.40;101090;;;;574494;246;24058;-81
2022/07/18 11:06:15;;;;;;;9.97;2.33;;;28.80;92.20;28.60;101089;;;;575313;240;23197;-80
2022/07/18 11:08:43;;;;;;;17.70;3.83;;;29.10;91.90;28.70;101096;;;;569134;245;24114;-80
2022/07/18 11:11:11;;;;;;;3.20;2.12;;;29.10;91.90;28.90;101103;;;;559120;250;35368;-80
2022/07/18 11:13:39;;;;;;;2.22;1.92;;;29.40;90.30;28.50;101100;;;;580709;242;23113;-80
2022/07/18 11:16:13;;;;;;;15.45;2.80;;;29.20;90.00;28.60;101093;;;;558377;254;23152;-81
2022/07/18 11:18:47;;;;;;;3.17;1.70;;;29.10;90.20;28.70;101092;;;;573080;245;23076;-80